Time;durP1;ratioP1;P1;durP2;ratioP2;P2;SDS_P1;SDS_P2;PMS_P1;PMS_P2;Temp;Humidity;BMP_temperature;BMP_pressure;BME280_temperature;BME280_humidity;BME280_pressure;Samples;Min_cycle;Max_cycle;Signal;HPM_P1;HPM_P2
2021/10/21 00:01:37;;;;;;;;;;;20.10;59.50;;;;;;5002587;28;19929;-55
2021/10/21 00:04:04;;;;;;;;;;;20.10;59.50;;;;;;5013762;28;19933;-56
2021/10/21 00:06:31;;;;;;;;;;;20.10;59.50;;;;;;5013582;28;19926;-55
2021/10/21 00:08:58;;;;;;;;;;;20.10;59.50;;;;;;4998654;28;19926;-57
2021/10/21 00:11:25;;;;;;;;;;;20.10;59.50;;;;;;5013754;28;19971;-56
2021/10/21 00:13:53;;;;;;;;;;;20.10;59.50;;;;;;5015152;28;19976;-56
2021/10/21 00:16:20;;;;;;;;;;;20.10;59.50;;;;;;5014668;28;19972;-55
2021/10/21 00:18:50;;;;;;;;;;;20.10;59.50;;;;;;4998354;28;19926;-56
2021/10/21 00:21:17;;;;;;;;;;;20.10;59.50;;;;;;5014736;28;19953;-55
2021/10/21 00:23:44;;;;;;;;;;;20.10;59.50;;;;;;5015033;28;20275;-56
2021/10/21 00:26:11;;;;;;;;;;;20.10;59.50;;;;;;4999075;28;20287;-55
2021/10/21 00:28:38;;;;;;;;;;;20.10;59.50;;;;;;4998704;28;19926;-57
2021/10/21 00:31:06;;;;;;;;;;;20.10;59.50;;;;;;5012165;28;19929;-53
2021/10/21 00:33:33;;;;;;;;;;;20.10;59.40;;;;;;5001657;28;19976;-55
2021/10/21 00:36:00;;;;;;;;;;;20.10;59.50;;;;;;5010367;28;20104;-54
2021/10/21 00:38:27;;;;;;;;;;;20.10;59.50;;;;;;5003318;28;20353;-56
2021/10/21 00:40:54;;;;;;;;;;;20.00;59.40;;;;;;4998326;28;19930;-56
2021/10/21 00:43:25;;;;;;;;;;;20.10;59.50;;;;;;4998298;28;19930;-55
2021/10/21 00:45:52;;;;;;;;;;;20.10;59.50;;;;;;5000266;28;19926;-56
2021/10/21 00:48:19;;;;;;;;;;;20.10;59.50;;;;;;5004760;28;19926;-57
2021/10/21 00:50:46;;;;;;;;;;;20.10;59.50;;;;;;5014109;28;20390;-56
2021/10/21 00:53:14;;;;;;;;;;;20.10;59.50;;;;;;5013656;28;19925;-55
2021/10/21 00:55:41;;;;;;;;;;;20.10;59.50;;;;;;5013835;28;19932;-57
2021/10/21 00:58:08;;;;;;;;;;;20.00;59.40;;;;;;5009526;28;19926;-54
2021/10/21 01:00:36;;;;;;;;;;;20.00;59.40;;;;;;4997688;28;19997;-56
2021/10/21 01:03:03;;;;;;;;;;;20.00;59.40;;;;;;4998710;28;20290;-56
2021/10/21 01:05:30;;;;;;;;;;;20.10;59.50;;;;;;4999011;28;20326;-56
2021/10/21 01:07:58;;;;;;;;;;;20.00;59.40;;;;;;5013720;28;19996;-57
2021/10/21 01:10:25;;;;;;;;;;;20.00;59.40;;;;;;5013763;28;19976;-55
2021/10/21 01:12:52;;;;;;;;;;;20.00;59.40;;;;;;4996654;28;19925;-57
2021/10/21 01:15:23;;;;;;;;;;;20.10;59.50;;;;;;4995505;28;20449;-55
2021/10/21 01:17:50;;;;;;;;;;;20.00;59.40;;;;;;5004755;28;19929;-54
2021/10/21 01:20:17;;;;;;;;;;;20.00;59.40;;;;;;5013736;28;20401;-56
2021/10/21 01:22:46;;;;;;;;;;;20.10;59.40;;;;;;5013770;28;20427;-57
2021/10/21 01:25:15;;;;;;;;;;;20.00;59.40;;;;;;5013897;28;19932;-56
2021/10/21 01:27:42;;;;;;;;;;;20.00;59.40;;;;;;4998517;28;19940;-55
2021/10/21 01:30:20;;;;;;;;;;;20.00;59.40;;;;;;4997689;28;19926;-54
2021/10/21 01:32:48;;;;;;;;;;;20.10;59.50;;;;;;4997217;28;19949;-56
2021/10/21 01:35:15;;;;;;;;;;;20.00;59.40;;;;;;4996917;28;19988;-55
2021/10/21 01:37:42;;;;;;;;;;;20.00;59.40;;;;;;4997074;28;20413;-55
2021/10/21 01:40:11;;;;;;;;;;;20.00;59.40;;;;;;5009374;28;19925;-57
2021/10/21 01:42:39;;;;;;;;;;;20.00;59.40;;;;;;5012006;28;19925;-56
2021/10/21 01:45:17;;;;;;;;;;;20.10;59.40;;;;;;5003025;28;20270;-54
2021/10/21 01:47:44;;;;;;;;;;;20.10;59.40;;;;;;5006586;28;19929;-55
2021/10/21 01:50:11;;;;;;;;;;;20.00;59.40;;;;;;5011828;28;20385;-56
2021/10/21 01:52:38;;;;;;;;;;;20.00;59.40;;;;;;5013008;28;19949;-55
2021/10/21 01:55:06;;;;;;;;;;;20.00;59.40;;;;;;5011528;28;19925;-54
2021/10/21 01:57:33;;;;;;;;;;;20.00;59.40;;;;;;5012969;28;19976;-54
2021/10/21 02:00:00;;;;;;;;;;;20.00;59.40;;;;;;5007449;28;20302;-57
2021/10/21 02:02:27;;;;;;;;;;;20.00;59.40;;;;;;5001982;28;19983;-57
2021/10/21 02:04:54;;;;;;;;;;;20.00;59.40;;;;;;5012545;28;19925;-54
2021/10/21 02:07:21;;;;;;;;;;;20.00;59.40;;;;;;5012836;28;20444;-54
2021/10/21 02:09:48;;;;;;;;;;;20.00;59.40;;;;;;5012606;28;19929;-55
2021/10/21 02:12:15;;;;;;;;;;;20.00;59.30;;;;;;5011313;28;19980;-55
2021/10/21 02:14:42;;;;;;;;;;;20.00;59.40;;;;;;4996560;28;19933;-56
2021/10/21 02:17:09;;;;;;;;;;;20.00;59.40;;;;;;5006255;28;19976;-57
2021/10/21 02:19:36;;;;;;;;;;;20.00;59.40;;;;;;5012770;28;19952;-57
2021/10/21 02:22:04;;;;;;;;;;;20.00;59.40;;;;;;4995398;28;19930;-55
2021/10/21 02:24:31;;;;;;;;;;;20.00;59.40;;;;;;5012873;28;19926;-55
2021/10/21 02:26:58;;;;;;;;;;;20.00;59.40;;;;;;4995795;28;19976;-55
2021/10/21 02:29:25;;;;;;;;;;;20.00;59.40;;;;;;5012588;28;19929;-57
2021/10/21 02:31:52;;;;;;;;;;;20.00;59.40;;;;;;5012395;28;19925;-55
2021/10/21 02:34:19;;;;;;;;;;;20.00;59.30;;;;;;4998489;28;20330;-56
2021/10/21 02:36:46;;;;;;;;;;;20.00;59.40;;;;;;5009662;28;19976;-57
2021/10/21 02:39:13;;;;;;;;;;;20.00;59.40;;;;;;5012347;28;19926;-55
2021/10/21 02:41:40;;;;;;;;;;;20.00;59.40;;;;;;5001230;28;20378;-55
2021/10/21 02:44:07;;;;;;;;;;;20.00;59.40;;;;;;5006569;28;19972;-56
2021/10/21 02:46:34;;;;;;;;;;;20.00;59.30;;;;;;5012449;28;19933;-55
2021/10/21 02:49:02;;;;;;;;;;;20.00;59.30;;;;;;5004191;28;19926;-55
2021/10/21 02:51:29;;;;;;;;;;;20.00;59.30;;;;;;5003766;28;19926;-55
2021/10/21 02:53:56;;;;;;;;;;;20.00;59.30;;;;;;5012256;28;19977;-56
2021/10/21 02:56:23;;;;;;;;;;;20.00;59.40;;;;;;5012936;28;19933;-54
2021/10/21 02:58:50;;;;;;;;;;;20.00;59.30;;;;;;5012377;28;19980;-57
2021/10/21 03:01:17;;;;;;;;;;;20.00;59.40;;;;;;5008586;28;20016;-56
2021/10/21 03:03:49;;;;;;;;;;;20.00;59.40;;;;;;4999472;28;19933;-55
2021/10/21 03:06:16;;;;;;;;;;;20.00;59.30;;;;;;5012437;28;19980;-58
2021/10/21 03:08:43;;;;;;;;;;;20.00;59.40;;;;;;5011276;28;19988;-56
2021/10/21 03:11:10;;;;;;;;;;;20.00;59.30;;;;;;5000874;28;19940;-57
2021/10/21 03:13:37;;;;;;;;;;;20.00;59.40;;;;;;5016342;28;19956;-54
2021/10/21 03:16:04;;;;;;;;;;;20.00;59.40;;;;;;5000606;28;19925;-56
2021/10/21 03:18:31;;;;;;;;;;;20.00;59.30;;;;;;4997840;28;20294;-57
2021/10/21 03:20:58;;;;;;;;;;;20.00;59.30;;;;;;5016051;28;19972;-55
2021/10/21 03:23:26;;;;;;;;;;;20.00;59.30;;;;;;5015127;28;19930;-55
2021/10/21 03:25:54;;;;;;;;;;;20.00;59.30;;;;;;5015903;28;19925;-57
2021/10/21 03:28:21;;;;;;;;;;;20.00;59.30;;;;;;5014728;28;20377;-55
2021/10/21 03:30:48;;;;;;;;;;;20.00;59.30;;;;;;5014389;28;19929;-56
2021/10/21 03:33:15;;;;;;;;;;;20.00;59.30;;;;;;5015333;28;19933;-55
2021/10/21 03:35:42;;;;;;;;;;;20.00;59.30;;;;;;5015432;28;19933;-56
2021/10/21 03:38:09;;;;;;;;;;;20.00;59.30;;;;;;5014273;28;19925;-56
2021/10/21 03:40:36;;;;;;;;;;;20.00;59.30;;;;;;5005361;28;19965;-56
2021/10/21 03:43:03;;;;;;;;;;;20.00;59.40;;;;;;5009132;28;19925;-56
2021/10/21 03:45:30;;;;;;;;;;;20.00;59.30;;;;;;5015469;28;20025;-56
2021/10/21 03:47:57;;;;;;;;;;;20.00;59.30;;;;;;5007978;28;19930;-56
2021/10/21 03:50:25;;;;;;;;;;;20.00;59.30;;;;;;4999506;28;19976;-55
2021/10/21 03:52:52;;;;;;;;;;;20.00;59.30;;;;;;4999621;28;19926;-56
2021/10/21 03:55:19;;;;;;;;;;;20.00;59.30;;;;;;5002778;28;20008;-56
2021/10/21 03:57:46;;;;;;;;;;;20.00;59.30;;;;;;5011111;28;20016;-57
2021/10/21 04:00:13;;;;;;;;;;;20.00;59.30;;;;;;4999174;28;19929;-56
2021/10/21 04:02:40;;;;;;;;;;;20.00;59.40;;;;;;5000949;28;19979;-57
2021/10/21 04:05:08;;;;;;;;;;;20.00;59.30;;;;;;5014890;28;20409;-56
2021/10/21 04:07:35;;;;;;;;;;;20.00;59.30;;;;;;5014816;28;20442;-56
2021/10/21 04:10:03;;;;;;;;;;;20.00;59.30;;;;;;5015363;28;19988;-57
2021/10/21 04:12:31;;;;;;;;;;;20.00;59.30;;;;;;4997912;28;19925;-56
2021/10/21 04:14:58;;;;;;;;;;;20.00;59.30;;;;;;5014903;28;19948;-56
2021/10/21 04:17:25;;;;;;;;;;;20.00;59.30;;;;;;5011824;28;20093;-57
2021/10/21 04:19:52;;;;;;;;;;;20.00;59.30;;;;;;5014102;28;19926;-55
2021/10/21 04:22:19;;;;;;;;;;;20.00;59.30;;;;;;5012972;28;20366;-57
2021/10/21 04:24:46;;;;;;;;;;;20.00;59.30;;;;;;5014477;28;20448;-54
2021/10/21 04:27:13;;;;;;;;;;;20.00;59.30;;;;;;5013651;28;19988;-55
2021/10/21 04:29:40;;;;;;;;;;;20.00;59.30;;;;;;5013313;28;19979;-54
2021/10/21 04:32:07;;;;;;;;;;;20.00;59.30;;;;;;5027402;28;19925;-55
2021/10/21 04:34:34;;;;;;;;;;;20.00;59.30;;;;;;5014450;28;20003;-57
2021/10/21 04:37:02;;;;;;;;;;;20.00;59.30;;;;;;5014282;28;19975;-56
2021/10/21 04:39:29;;;;;;;;;;;20.00;59.30;;;;;;5014395;28;19925;-56
2021/10/21 04:41:56;;;;;;;;;;;20.00;59.40;;;;;;5006000;28;19929;-56
2021/10/21 04:44:23;;;;;;;;;;;20.00;59.30;;;;;;5005666;28;20035;-56
2021/10/21 04:46:50;;;;;;;;;;;20.00;59.40;;;;;;5007910;28;19933;-56
2021/10/21 04:49:17;;;;;;;;;;;20.00;59.40;;;;;;4998532;28;19925;-57
2021/10/21 04:51:44;;;;;;;;;;;20.00;59.30;;;;;;4998229;28;20298;-57
2021/10/21 04:54:11;;;;;;;;;;;20.00;59.30;;;;;;5001489;28;20008;-56
2021/10/21 04:56:38;;;;;;;;;;;20.00;59.40;;;;;;5011672;28;19932;-56
2021/10/21 04:59:05;;;;;;;;;;;20.00;59.40;;;;;;4998131;28;19933;-56
2021/10/21 05:01:32;;;;;;;;;;;20.00;59.40;;;;;;4997879;28;19925;-56
2021/10/21 05:04:00;;;;;;;;;;;20.00;59.40;;;;;;4997812;28;19925;-58
2021/10/21 05:06:26;;;;;;;;;;;20.00;59.40;;;;;;4997156;28;19926;-57
2021/10/21 05:08:53;;;;;;;;;;;20.00;59.40;;;;;;5013286;28;19926;-56
2021/10/21 05:11:20;;;;;;;;;;;20.00;59.40;;;;;;4996594;28;19929;-56
2021/10/21 05:13:47;;;;;;;;;;;20.00;59.40;;;;;;4997373;28;20385;-56
2021/10/21 05:16:14;;;;;;;;;;;20.00;59.40;;;;;;5013302;28;19925;-55
2021/10/21 05:18:42;;;;;;;;;;;20.00;59.40;;;;;;5013454;28;20369;-57
2021/10/21 05:21:09;;;;;;;;;;;20.00;59.30;;;;;;5010775;28;19932;-58
2021/10/21 05:23:36;;;;;;;;;;;20.00;59.90;;;;;;5000052;28;19930;-57
2021/10/21 05:26:03;;;;;;;;;;;20.00;59.40;;;;;;5003483;28;19933;-58
2021/10/21 05:28:30;;;;;;;;;;;20.00;59.40;;;;;;5001080;28;19926;-58
2021/10/21 05:30:58;;;;;;;;;;;20.00;59.40;;;;;;5006927;28;19925;-57
2021/10/21 05:33:26;;;;;;;;;;;20.00;59.30;;;;;;5001796;28;19980;-57
2021/10/21 05:35:53;;;;;;;;;;;20.00;59.40;;;;;;5004642;28;20334;-58
2021/10/21 05:38:20;;;;;;;;;;;20.00;59.40;;;;;;5012536;28;19925;-58
2021/10/21 05:40:47;;;;;;;;;;;20.00;59.30;;;;;;5012870;28;19979;-59
2021/10/21 05:43:14;;;;;;;;;;;20.00;59.40;;;;;;5013071;28;19976;-58
2021/10/21 05:45:41;;;;;;;;;;;20.00;59.30;;;;;;5008819;28;20025;-59
2021/10/21 05:48:12;;;;;;;;;;;20.00;59.30;;;;;;5000156;28;19933;-57
2021/10/21 05:50:39;;;;;;;;;;;20.00;59.30;;;;;;5009116;28;19926;-58
2021/10/21 05:53:06;;;;;;;;;;;20.00;59.30;;;;;;4996973;28;20148;-57
2021/10/21 05:55:33;;;;;;;;;;;20.10;59.40;;;;;;4997383;28;19929;-58
2021/10/21 05:57:59;;;;;;;;;;;20.10;59.30;;;;;;5011052;28;19984;-58
2021/10/21 06:00:26;;;;;;;;;;;20.10;59.30;;;;;;5012982;28;19965;-58
2021/10/21 06:02:53;;;;;;;;;;;20.10;59.30;;;;;;4994884;28;19932;-57
2021/10/21 06:05:23;;;;;;;;;;;20.10;59.20;;;;;;4994145;28;19938;-58
2021/10/21 06:07:50;;;;;;;;;;;20.10;59.20;;;;;;5012083;28;19996;-58
2021/10/21 06:10:17;;;;;;;;;;;20.10;59.20;;;;;;5011164;28;19972;-57
2021/10/21 06:12:48;;;;;;;;;;;20.20;59.20;;;;;;5012168;28;19929;-58
2021/10/21 06:15:17;;;;;;;;;;;20.20;59.20;;;;;;4996685;28;19933;-58
2021/10/21 06:17:45;;;;;;;;;;;20.20;59.20;;;;;;5008832;28;19925;-58
2021/10/21 06:20:15;;;;;;;;;;;20.20;59.40;;;;;;5011125;28;20263;-58
2021/10/21 06:22:42;;;;;;;;;;;20.20;59.50;;;;;;5011129;28;20408;-57
2021/10/21 06:25:11;;;;;;;;;;;20.20;59.70;;;;;;5010740;28;19975;-58
2021/10/21 06:27:39;;;;;;;;;;;20.20;59.70;;;;;;5010921;28;19929;-58
2021/10/21 06:30:07;;;;;;;;;;;20.20;59.90;;;;;;5000812;28;19988;-58
2021/10/21 06:32:34;;;;;;;;;;;20.30;60.10;;;;;;5006425;28;19938;-58
2021/10/21 06:35:01;;;;;;;;;;;20.30;60.20;;;;;;5011902;28;19979;-58
2021/10/21 06:37:28;;;;;;;;;;;20.30;60.20;;;;;;5011927;28;19925;-58
2021/10/21 06:39:55;;;;;;;;;;;20.30;60.30;;;;;;5011579;28;19925;-57
2021/10/21 06:42:23;;;;;;;;;;;20.30;60.50;;;;;;5011756;28;19929;-58
2021/10/21 06:44:51;;;;;;;;;;;20.30;60.60;;;;;;5009213;28;19933;-58
2021/10/21 06:47:18;;;;;;;;;;;20.40;60.70;;;;;;5004922;28;19975;-59
2021/10/21 06:49:45;;;;;;;;;;;20.40;60.80;;;;;;5011996;28;19926;-57
2021/10/21 06:52:12;;;;;;;;;;;20.40;60.90;;;;;;5003021;28;20386;-57
2021/10/21 06:54:39;;;;;;;;;;;20.40;60.90;;;;;;5013062;28;19997;-58
2021/10/21 06:57:06;;;;;;;;;;;20.40;61.00;;;;;;5001336;28;19926;-58
2021/10/21 06:59:33;;;;;;;;;;;20.50;61.10;;;;;;5015606;28;19926;-58
2021/10/21 07:02:00;;;;;;;;;;;20.50;61.10;;;;;;4998733;28;20447;-58
2021/10/21 07:04:27;;;;;;;;;;;20.50;60.80;;;;;;4998047;28;19925;-58
2021/10/21 07:06:54;;;;;;;;;;;20.50;60.30;;;;;;5016439;28;19980;-58
2021/10/21 07:09:21;;;;;;;;;;;20.50;59.90;;;;;;5015626;28;19984;-58
2021/10/21 07:11:48;;;;;;;;;;;20.50;59.80;;;;;;5000520;28;20004;-58
2021/10/21 07:14:16;;;;;;;;;;;20.50;59.90;;;;;;4999940;28;20326;-57
2021/10/21 07:16:43;;;;;;;;;;;20.50;59.70;;;;;;5008922;28;19925;-58
2021/10/21 07:19:10;;;;;;;;;;;20.50;59.60;;;;;;5013849;28;19975;-56
2021/10/21 07:21:37;;;;;;;;;;;20.50;59.70;;;;;;5015517;28;19988;-57
2021/10/21 07:24:05;;;;;;;;;;;20.50;59.60;;;;;;5003886;28;19926;-56
2021/10/21 07:26:32;;;;;;;;;;;20.50;59.60;;;;;;4999577;28;19966;-58
2021/10/21 07:28:59;;;;;;;;;;;20.60;59.70;;;;;;5009803;28;19937;-57
2021/10/21 07:31:26;;;;;;;;;;;20.60;59.70;;;;;;5015472;28;20443;-57
2021/10/21 07:33:53;;;;;;;;;;;20.60;59.80;;;;;;5015451;28;19976;-57
2021/10/21 07:36:22;;;;;;;;;;;20.60;59.80;;;;;;5014426;28;19925;-57
2021/10/21 07:38:53;;;;;;;;;;;20.60;59.80;;;;;;5015466;28;19932;-57
2021/10/21 07:41:25;;;;;;;;;;;20.50;59.80;;;;;;5015587;28;19925;-57
2021/10/21 07:43:52;;;;;;;;;;;20.60;59.90;;;;;;5045937;28;19926;-58
2021/10/21 07:46:19;;;;;;;;;;;20.50;59.80;;;;;;5015466;28;19979;-58
2021/10/21 07:48:46;;;;;;;;;;;20.50;59.80;;;;;;5015352;28;20004;-56
2021/10/21 07:51:13;;;;;;;;;;;20.50;59.80;;;;;;5012214;28;19933;-57
2021/10/21 07:53:40;;;;;;;;;;;20.50;59.80;;;;;;4999028;28;19929;-58
2021/10/21 07:56:07;;;;;;;;;;;20.50;59.80;;;;;;4999554;28;19929;-57
2021/10/21 07:58:34;;;;;;;;;;;20.50;59.80;;;;;;5013647;28;19934;-57
2021/10/21 08:01:00;;;;;;;;;;;20.50;59.80;;;;;;5014865;28;19925;-57
2021/10/21 08:03:28;;;;;;;;;;;20.50;59.90;;;;;;5015132;28;19929;-57
2021/10/21 08:05:56;;;;;;;;;;;20.50;59.90;;;;;;5015286;28;20306;-57
2021/10/21 08:08:23;;;;;;;;;;;20.50;59.90;;;;;;5015272;28;19947;-57
2021/10/21 08:10:50;;;;;;;;;;;20.50;59.90;;;;;;5014288;28;19929;-57
2021/10/21 08:13:17;;;;;;;;;;;20.50;59.90;;;;;;5014738;28;19974;-57
2021/10/21 08:15:50;;;;;;;;;;;20.50;59.80;;;;;;5026687;28;19932;-56
2021/10/21 08:18:17;;;;;;;;;;;20.50;59.80;;;;;;5000086;28;19926;-57
2021/10/21 08:20:44;;;;;;;;;;;20.50;59.80;;;;;;5012350;28;19929;-56
2021/10/21 08:23:12;;;;;;;;;;;20.50;59.70;;;;;;5002203;28;20340;-56
2021/10/21 08:25:39;;;;;;;;;;;20.60;59.80;;;;;;5010527;28;19933;-57
2021/10/21 08:28:07;;;;;;;;;;;20.50;59.70;;;;;;5003904;28;19926;-58
2021/10/21 08:30:37;;;;;;;;;;;20.50;59.70;;;;;;4997246;28;19977;-57
2021/10/21 08:33:04;;;;;;;;;;;20.50;59.70;;;;;;4998146;28;19977;-57
2021/10/21 08:35:32;;;;;;;;;;;20.60;59.70;;;;;;4998221;28;20275;-57
2021/10/21 08:37:59;;;;;;;;;;;20.60;59.70;;;;;;4998137;28;19926;-57
2021/10/21 08:40:27;;;;;;;;;;;20.60;59.70;;;;;;5003997;28;19933;-56
2021/10/21 08:42:54;;;;;;;;;;;20.60;59.70;;;;;;5008538;28;19926;-57
2021/10/21 08:45:22;;;;;;;;;;;20.50;59.60;;;;;;5002843;28;19925;-56
2021/10/21 08:47:50;;;;;;;;;;;20.60;59.70;;;;;;5010270;28;19926;-57
2021/10/21 08:50:23;;;;;;;;;;;20.50;59.60;;;;;;4997949;28;19926;-57
2021/10/21 08:52:50;;;;;;;;;;;20.60;59.70;;;;;;5000883;28;19982;-57
2021/10/21 08:55:17;;;;;;;;;;;20.50;59.60;;;;;;5013574;28;19933;-57
2021/10/21 08:57:44;;;;;;;;;;;20.50;59.60;;;;;;5012430;28;19925;-58
2021/10/21 09:00:12;;;;;;;;;;;20.50;59.70;;;;;;5012808;28;19979;-57
2021/10/21 09:02:48;;;;;;;;;;;20.50;59.70;;;;;;5013857;28;19926;-57
2021/10/21 09:08:07;;;;;;;;;;;20.50;59.70;;;;;;4997395;28;19991;-58
2021/10/21 09:10:53;;;;;;;;;;;20.50;59.70;;;;;;5012650;28;19937;-57
2021/10/21 09:13:25;;;;;;;;;;;20.50;59.70;;;;;;5000407;28;19965;-57
2021/10/21 09:15:55;;;;;;;;;;;20.50;59.70;;;;;;5013622;28;20004;-57
2021/10/21 09:18:23;;;;;;;;;;;20.50;59.70;;;;;;5003401;28;19925;-58
2021/10/21 09:20:50;;;;;;;;;;;20.50;59.70;;;;;;4997961;28;19925;-57
2021/10/21 09:23:18;;;;;;;;;;;20.50;59.80;;;;;;4997441;28;19975;-58
2021/10/21 09:25:46;;;;;;;;;;;20.50;59.80;;;;;;4996330;28;19925;-57
2021/10/21 09:28:18;;;;;;;;;;;20.50;59.80;;;;;;4996155;28;19926;-59
2021/10/21 09:30:56;;;;;;;;;;;20.50;59.70;;;;;;5013679;28;19975;-58
2021/10/21 09:33:26;;;;;;;;;;;20.50;59.80;;;;;;4996236;28;20436;-56
2021/10/21 09:35:55;;;;;;;;;;;20.50;59.80;;;;;;4996275;28;19965;-58
2021/10/21 09:38:29;;;;;;;;;;;20.50;59.80;;;;;;4996152;28;19961;-58
2021/10/21 09:41:04;;;;;;;;;;;20.50;59.80;;;;;;5013377;28;19932;-57
2021/10/21 09:43:32;;;;;;;;;;;20.50;59.80;;;;;;4995330;28;19992;-58
2021/10/21 09:45:59;;;;;;;;;;;20.50;59.80;;;;;;5012473;28;19925;-58
2021/10/21 09:48:26;;;;;;;;;;;20.50;59.80;;;;;;5010754;28;19925;-58
2021/10/21 09:50:53;;;;;;;;;;;20.50;59.80;;;;;;4996948;28;20370;-56
2021/10/21 09:53:33;;;;;;;;;;;20.50;59.80;;;;;;4996852;28;19925;-58
2021/10/21 09:56:03;;;;;;;;;;;20.50;59.90;;;;;;5012404;28;20012;-59
2021/10/21 09:58:31;;;;;;;;;;;20.50;59.90;;;;;;4997678;28;19932;-58
2021/10/21 10:01:06;;;;;;;;;;;20.50;59.90;;;;;;4996793;28;20373;-58
2021/10/21 10:03:34;;;;;;;;;;;20.50;59.90;;;;;;5011193;28;19965;-58
2021/10/21 10:06:01;;;;;;;;;;;20.50;59.80;;;;;;5012866;28;19925;-58
2021/10/21 10:08:29;;;;;;;;;;;20.50;59.80;;;;;;5012529;28;20495;-58
2021/10/21 10:10:57;;;;;;;;;;;20.50;59.90;;;;;;5012708;28;19926;-58
2021/10/21 10:13:25;;;;;;;;;;;20.50;59.90;;;;;;5011497;28;19952;-58
2021/10/21 10:15:53;;;;;;;;;;;20.50;59.90;;;;;;5012468;28;20477;-58
2021/10/21 10:18:22;;;;;;;;;;;20.50;59.80;;;;;;5011277;28;19961;-58
2021/10/21 10:21:07;;;;;;;;;;;20.50;59.80;;;;;;5012626;28;19934;-57
2021/10/21 10:23:50;;;;;;;;;;;20.50;59.90;;;;;;5011587;28;19972;-58
2021/10/21 10:26:35;;;;;;;;;;;20.50;59.80;;;;;;5011266;28;19925;-57
2021/10/21 10:29:02;;;;;;;;;;;20.50;59.80;;;;;;5013158;28;19930;-58
2021/10/21 10:31:48;;;;;;;;;;;20.50;59.80;;;;;;5000129;28;19933;-58
2021/10/21 10:34:34;;;;;;;;;;;20.50;59.80;;;;;;5010291;28;19926;-58
2021/10/21 10:37:21;;;;;;;;;;;20.50;59.80;;;;;;5012267;28;19929;-58
2021/10/21 10:39:50;;;;;;;;;;;20.50;59.80;;;;;;4995544;28;19934;-58
2021/10/21 10:42:38;;;;;;;;;;;20.50;59.70;;;;;;5011480;28;19980;-58
2021/10/21 10:45:37;;;;;;;;;;;20.50;59.70;;;;;;4995102;28;20044;-58
2021/10/21 10:48:04;;;;;;;;;;;20.50;59.80;;;;;;5012182;28;19997;-56
2021/10/21 10:50:34;;;;;;;;;;;20.50;59.80;;;;;;5012280;28;19984;-57
2021/10/21 10:53:06;;;;;;;;;;;20.50;59.80;;;;;;4995802;28;19962;-58
2021/10/21 10:55:38;;;;;;;;;;;20.50;59.80;;;;;;5025527;28;19987;-57
2021/10/21 10:58:07;;;;;;;;;;;20.50;59.80;;;;;;4994959;28;20301;-58
2021/10/21 11:00:51;;;;;;;;;;;20.50;59.80;;;;;;5011553;28;19936;-57
2021/10/21 11:03:37;;;;;;;;;;;20.50;59.80;;;;;;4997081;28;19925;-57
2021/10/21 11:06:04;;;;;;;;;;;20.50;59.80;;;;;;4996192;28;19925;-57
2021/10/21 11:08:53;;;;;;;;;;;20.50;59.80;;;;;;5012015;28;19925;-57
2021/10/21 11:11:38;;;;;;;;;;;20.50;59.80;;;;;;5009978;28;19979;-58
2021/10/21 11:14:09;;;;;;;;;;;20.50;59.80;;;;;;5000360;28;19925;-58
2021/10/21 11:16:43;;;;;;;;;;;20.50;59.70;;;;;;5011826;28;19971;-58
2021/10/21 11:19:30;;;;;;;;;;;20.50;59.70;;;;;;4999317;28;19926;-58
2021/10/21 11:21:57;;;;;;;;;;;20.50;59.70;;;;;;5007257;28;20010;-58
2021/10/21 11:24:43;;;;;;;;;;;20.50;59.70;;;;;;4999898;28;19925;-57
2021/10/21 11:27:10;;;;;;;;;;;20.50;59.60;;;;;;5006436;28;19992;-58
2021/10/21 11:29:37;;;;;;;;;;;20.50;59.60;;;;;;4995251;28;20001;-58
2021/10/21 11:32:04;;;;;;;;;;;20.50;59.60;;;;;;4999657;28;19933;-57
2021/10/21 11:34:32;;;;;;;;;;;20.60;59.60;;;;;;5002599;28;19926;-58
2021/10/21 11:36:59;;;;;;;;;;;20.60;59.80;;;;;;5015472;28;19929;-57
2021/10/21 11:39:36;;;;;;;;;;;20.60;59.50;;;;;;5014363;28;19925;-58
2021/10/21 11:42:11;;;;;;;;;;;20.60;59.50;;;;;;5014159;28;19926;-58
2021/10/21 11:44:38;;;;;;;;;;;20.60;59.40;;;;;;5001388;28;20301;-58
2021/10/21 11:47:06;;;;;;;;;;;20.60;59.30;;;;;;5015299;28;19925;-57
2021/10/21 11:49:34;;;;;;;;;;;20.60;59.30;;;;;;5014155;28;20001;-58
2021/10/21 11:52:05;;;;;;;;;;;20.70;59.30;;;;;;5015710;28;20330;-56
2021/10/21 11:54:33;;;;;;;;;;;20.70;59.20;;;;;;4997811;28;19956;-57
2021/10/21 11:57:00;;;;;;;;;;;20.70;59.10;;;;;;5014153;28;19988;-58
2021/10/21 11:59:37;;;;;;;;;;;20.70;59.10;;;;;;5001294;28;20373;-58
2021/10/21 12:02:08;;;;;;;;;;;20.70;59.10;;;;;;5015204;28;20279;-57
2021/10/21 12:04:35;;;;;;;;;;;20.70;59.10;;;;;;4997355;28;19929;-57
2021/10/21 12:07:03;;;;;;;;;;;20.70;59.10;;;;;;4998583;28;19948;-57
2021/10/21 12:09:34;;;;;;;;;;;20.70;59.10;;;;;;5013701;28;19929;-57
2021/10/21 12:12:02;;;;;;;;;;;20.80;59.10;;;;;;5015089;28;20355;-58
2021/10/21 12:14:30;;;;;;;;;;;20.80;59.10;;;;;;5014785;28;19929;-59
2021/10/21 12:16:57;;;;;;;;;;;20.80;59.00;;;;;;5012337;28;20341;-58
2021/10/21 12:19:26;;;;;;;;;;;20.80;59.00;;;;;;5014916;28;20370;-57
2021/10/21 12:22:13;;;;;;;;;;;20.70;59.00;;;;;;5015117;28;20009;-57
2021/10/21 12:24:45;;;;;;;;;;;20.70;59.00;;;;;;5000964;28;19925;-57
2021/10/21 12:27:19;;;;;;;;;;;20.70;59.10;;;;;;5012433;28;19930;-57
2021/10/21 12:29:46;;;;;;;;;;;20.70;59.10;;;;;;5000697;28;19925;-57
2021/10/21 12:32:21;;;;;;;;;;;20.70;59.10;;;;;;5010325;28;19979;-58
2021/10/21 12:34:48;;;;;;;;;;;20.70;59.10;;;;;;5013484;28;19930;-57
2021/10/21 12:37:23;;;;;;;;;;;20.70;59.00;;;;;;5002466;28;20337;-58
2021/10/21 12:39:50;;;;;;;;;;;20.70;59.00;;;;;;4998518;28;19932;-57
2021/10/21 12:42:21;;;;;;;;;;;20.80;59.00;;;;;;5007674;28;19929;-58
2021/10/21 12:44:58;;;;;;;;;;;20.70;58.90;;;;;;5014623;28;20080;-58
2021/10/21 12:47:32;;;;;;;;;;;20.80;59.00;;;;;;5013038;28;19926;-58
2021/10/21 12:50:02;;;;;;;;;;;20.70;58.90;;;;;;5003194;28;19977;-58
2021/10/21 12:52:30;;;;;;;;;;;20.80;59.00;;;;;;5008520;28;19979;-57
2021/10/21 12:55:17;;;;;;;;;;;20.70;58.90;;;;;;5004051;28;20345;-59
2021/10/21 12:57:49;;;;;;;;;;;20.70;59.00;;;;;;4997970;28;20291;-58
2021/10/21 13:00:34;;;;;;;;;;;20.70;59.00;;;;;;5009490;28;19991;-58
2021/10/21 13:03:21;;;;;;;;;;;20.70;59.00;;;;;;5028059;28;20129;-58
2021/10/21 13:05:53;;;;;;;;;;;20.70;59.00;;;;;;4998655;28;20140;-58
2021/10/21 13:08:21;;;;;;;;;;;20.70;59.00;;;;;;5012512;28;19987;-58
2021/10/21 13:10:55;;;;;;;;;;;20.70;59.60;;;;;;5014197;28;19968;-58
2021/10/21 13:13:25;;;;;;;;;;;20.70;59.10;;;;;;5000301;28;19926;-58
2021/10/21 13:15:53;;;;;;;;;;;20.70;59.10;;;;;;5000899;28;19933;-59
2021/10/21 13:18:20;;;;;;;;;;;20.70;59.10;;;;;;5014202;28;19925;-59
2021/10/21 13:20:47;;;;;;;;;;;20.70;59.10;;;;;;5002288;28;19968;-58
2021/10/21 13:23:15;;;;;;;;;;;20.70;59.10;;;;;;5007917;28;19980;-58
2021/10/21 13:25:42;;;;;;;;;;;20.70;59.10;;;;;;5004099;28;20333;-58
2021/10/21 13:28:09;;;;;;;;;;;20.70;59.10;;;;;;5005922;28;19936;-58
2021/10/21 13:30:36;;;;;;;;;;;20.70;59.10;;;;;;5013770;28;20337;-59
2021/10/21 13:33:04;;;;;;;;;;;20.70;59.10;;;;;;5012187;28;19979;-58
2021/10/21 13:35:31;;;;;;;;;;;20.70;59.10;;;;;;5012161;28;19925;-59
2021/10/21 13:37:58;;;;;;;;;;;20.70;59.00;;;;;;5013420;28;19979;-59
2021/10/21 13:40:25;;;;;;;;;;;20.70;59.00;;;;;;5012535;28;19929;-58
2021/10/21 13:42:53;;;;;;;;;;;20.70;58.90;;;;;;5010038;28;19926;-59
2021/10/21 13:45:20;;;;;;;;;;;20.80;59.00;;;;;;4999268;28;19925;-58
2021/10/21 13:47:47;;;;;;;;;;;20.80;58.90;;;;;;5013447;28;20564;-58
2021/10/21 13:50:14;;;;;;;;;;;20.80;58.90;;;;;;5012994;28;19926;-59
2021/10/21 13:52:41;;;;;;;;;;;20.80;58.90;;;;;;5012885;28;20377;-58
2021/10/21 13:55:08;;;;;;;;;;;20.80;58.90;;;;;;4995623;28;19926;-58
2021/10/21 13:57:35;;;;;;;;;;;20.70;58.90;;;;;;5012615;28;19932;-58
2021/10/21 14:00:04;;;;;;;;;;;20.70;58.90;;;;;;4995924;28;20346;-58
2021/10/21 14:02:31;;;;;;;;;;;20.70;58.90;;;;;;4996712;28;19936;-58
2021/10/21 14:04:58;;;;;;;;;;;20.70;59.00;;;;;;5011669;28;19925;-57
2021/10/21 14:07:26;;;;;;;;;;;20.70;59.00;;;;;;5012831;28;19972;-58
2021/10/21 14:09:54;;;;;;;;;;;20.70;59.00;;;;;;4998955;28;20037;-58
2021/10/21 14:12:21;;;;;;;;;;;20.70;59.00;;;;;;5009727;28;19971;-58
2021/10/21 14:14:48;;;;;;;;;;;20.70;58.90;;;;;;5000779;28;20004;-58
2021/10/21 14:17:16;;;;;;;;;;;20.70;59.00;;;;;;4995921;28;19926;-59
2021/10/21 14:19:43;;;;;;;;;;;20.70;59.00;;;;;;5010539;28;20390;-58
2021/10/21 14:22:13;;;;;;;;;;;20.70;59.00;;;;;;5005804;28;19926;-57
2021/10/21 14:24:40;;;;;;;;;;;20.70;59.00;;;;;;5012636;28;20381;-58
2021/10/21 14:27:10;;;;;;;;;;;20.70;58.90;;;;;;5012488;28;19932;-58
2021/10/21 14:29:39;;;;;;;;;;;20.70;59.50;;;;;;5005059;28;19953;-58